Time;durP1;ratioP1;P1;durP2;ratioP2;P2;SDS_P1;SDS_P2;PMS_P1;PMS_P2;Temp;Humidity;BMP_temperature;BMP_pressure;BME280_temperature;BME280_humidity;BME280_pressure;Samples;Min_cycle;Max_cycle;Signal;HPM_P1;HPM_P2
2021/10/23 00:01:52;;;;;;;12.32;3.05;;;;;;;6.87;50.95;97827.56;5058158;28;20098;-71
2021/10/23 00:04:18;;;;;;;14.52;2.95;;;;;;;6.84;51.17;97834.38;5062058;28;20049;-70
2021/10/23 00:06:45;;;;;;;18.50;4.38;;;;;;;6.91;51.04;97828.56;5061718;28;20041;-70
2021/10/23 00:09:11;;;;;;;11.48;2.60;;;;;;;6.90;51.02;97829.69;5046767;28;20052;-69
2021/10/23 00:11:37;;;;;;;12.43;2.95;;;;;;;6.94;51.10;97836.94;5056242;28;20049;-71
2021/10/23 00:14:04;;;;;;;14.13;2.70;;;;;;;6.83;51.53;97834.69;5057518;28;20068;-71
2021/10/23 00:16:30;;;;;;;14.02;2.72;;;;;;;6.81;51.46;97846.69;5050973;28;20070;-76
2021/10/23 00:18:56;;;;;;;13.90;3.28;;;;;;;6.89;51.23;97830.78;5052829;28;20555;-74
2021/10/23 00:21:22;;;;;;;20.20;3.22;;;;;;;6.88;51.44;97846.28;5053203;28;20044;-73
2021/10/23 00:23:49;;;;;;;12.20;3.38;;;;;;;6.85;51.63;97835.22;5056936;28;20075;-75
2021/10/23 00:26:15;;;;;;;12.30;2.80;;;;;;;6.71;51.78;97846.00;5053321;28;20052;-76
2021/10/23 00:28:41;;;;;;;17.13;3.40;;;;;;;6.81;51.85;97838.53;5061279;28;20135;-75
2021/10/23 00:31:08;;;;;;;12.85;2.80;;;;;;;6.79;52.02;97845.34;5034631;28;20419;-75
2021/10/23 00:33:34;;;;;;;17.73;2.55;;;;;;;6.59;52.34;97817.44;5060012;28;20568;-76
2021/10/23 00:35:59;;;;;;;13.65;2.58;;;;;;;6.74;52.29;97837.28;5056057;28;20132;-75
2021/10/23 00:38:25;;;;;;;12.57;2.78;;;;;;;6.69;52.61;97840.06;5038001;28;20045;-75
2021/10/23 00:40:53;;;;;;;22.65;3.45;;;;;;;6.65;52.36;97821.66;5056970;28;20060;-76
2021/10/23 00:43:19;;;;;;;12.50;2.65;;;;;;;6.80;52.44;97839.63;5061801;28;20097;-75
2021/10/23 00:45:45;;;;;;;14.02;2.70;;;;;;;6.70;52.56;97819.97;5058398;28;20058;-75
2021/10/23 00:48:11;;;;;;;10.85;2.67;;;;;;;6.82;52.44;97820.31;5042101;28;20050;-76
2021/10/23 00:50:37;;;;;;;16.83;2.80;;;;;;;6.65;52.74;97837.16;5054224;28;20528;-75
2021/10/23 00:53:03;;;;;;;16.17;2.67;;;;;;;6.71;52.90;97840.59;5050607;28;20048;-74
2021/10/23 00:55:30;;;;;;;11.23;2.83;;;;;;;6.61;53.04;97822.56;5058114;28;20079;-75
2021/10/23 00:57:57;;;;;;;17.65;2.80;;;;;;;6.73;52.96;97843.84;5035951;28;20148;-75
2021/10/23 01:00:24;;;;;;;11.70;2.97;;;;;;;6.65;52.96;97831.75;5052862;28;20052;-75
2021/10/23 01:02:49;;;;;;;12.80;2.97;;;;;;;6.71;52.94;97854.16;5062260;28;20076;-74
2021/10/23 01:05:16;;;;;;;15.88;3.78;;;;;;;6.66;53.06;97833.34;5039610;28;20045;-74
2021/10/23 01:07:43;;;;;;;16.02;3.40;;;;;;;6.74;52.90;97832.66;5027206;28;20041;-73
2021/10/23 01:10:11;;;;;;;11.15;2.42;;;;;;;6.77;52.92;97855.72;5052880;28;20406;-73
2021/10/23 01:12:40;;;;;;;14.43;3.22;;;;;;;6.76;52.88;97843.22;5062043;28;20036;-74
2021/10/23 01:15:22;;;;;;;16.27;3.17;;;;;;;6.78;52.97;97841.03;5057177;28;20421;-75
2021/10/23 01:17:50;;;;;;;17.40;2.70;;;;;;;6.84;52.87;97842.53;5051627;28;20052;-74
2021/10/23 01:20:17;;;;;;;;;;;;;;;6.86;52.80;97839.53;5038159;28;20469;-74
2021/10/23 01:22:43;;;;;;;12.70;2.28;;;;;;;6.85;52.70;97835.22;5044577;28;19934;-73
2021/10/23 01:25:11;;;;;;;10.82;2.70;;;;;;;6.84;52.92;97839.81;5062478;28;20045;-73
2021/10/23 01:27:37;;;;;;;11.35;3.05;;;;;;;6.66;53.33;97844.22;5057131;28;20049;-72
2021/10/23 01:30:05;;;;;;;11.35;2.95;;;;;;;6.78;53.13;97841.81;5050244;28;20049;-74
2021/10/23 01:32:30;;;;;;;;;;;;;;;6.69;53.47;97857.19;5055783;28;20056;-74
2021/10/23 01:34:56;;;;;;;12.50;2.75;;;;;;;6.76;53.14;97875.81;5058905;28;19933;-74
2021/10/23 01:37:33;;;;;;;23.00;3.03;;;;;;;6.80;53.04;97841.53;5045707;28;20037;-74
2021/10/23 01:40:01;;;;;;;13.55;2.70;;;;;;;6.81;53.12;97856.72;5052158;28;20045;-72
2021/10/23 01:42:26;;;;;;;;;;;;;;;6.75;53.49;97838.91;5052000;28;20511;-73
2021/10/23 01:44:52;;;;;;;9.82;2.60;;;;;;;6.88;52.89;97838.13;5062838;28;20023;-74
2021/10/23 01:47:21;;;;;;;12.65;2.83;;;;;;;6.91;52.97;97832.09;5054112;28;20574;-74
2021/10/23 01:49:48;;;;;;;12.05;2.35;;;;;;;6.91;53.01;97837.53;5049044;28;20052;-74
2021/10/23 01:52:14;;;;;;;12.30;2.80;;;;;;;6.80;52.91;97823.34;5054722;28;20048;-74
2021/10/23 01:54:41;;;;;;;15.73;2.72;;;;;;;6.88;52.99;97821.84;5049810;28;20497;-74
2021/10/23 01:57:08;;;;;;;17.45;2.72;;;;;;;6.83;53.34;97840.94;5054723;28;20041;-74
2021/10/23 01:59:34;;;;;;;18.10;3.80;;;;;;;6.75;53.34;97836.97;5049669;28;20033;-74
2021/10/23 02:02:02;;;;;;;16.27;3.10;;;;;;;6.86;53.31;97834.09;5053223;28;20532;-74
2021/10/23 02:04:28;;;;;;;19.67;2.83;;;;;;;6.84;53.11;97826.22;5043704;28;20055;-74
2021/10/23 02:06:54;;;;;;;19.40;2.97;;;;;;;6.87;53.09;97839.25;5053974;28;20040;-74
2021/10/23 02:09:20;;;;;;;16.58;2.70;;;;;;;6.89;53.47;97841.66;5055100;28;20098;-74
2021/10/23 02:11:48;;;;;;;15.13;2.90;;;;;;;6.90;53.21;97825.06;5040324;28;20107;-72
2021/10/23 02:14:14;;;;;;;18.65;2.83;;;;;;;6.76;53.34;97833.16;5040723;28;20053;-74
2021/10/23 02:16:40;;;;;;;19.17;3.03;;;;;;;6.82;53.37;97839.31;5024780;28;20215;-72
2021/10/23 02:19:06;;;;;;;11.25;3.10;;;;;;;6.69;53.83;97845.50;5032853;28;20057;-72
2021/10/23 02:21:32;;;;;;;12.05;2.80;;;;;;;6.79;53.73;97891.53;5036529;28;20049;-73
2021/10/23 02:23:58;;;;;;;10.50;2.50;;;;;;;6.72;53.96;97858.53;5008386;28;20049;-78
2021/10/23 02:26:24;;;;;;;13.55;3.05;;;;;;;6.79;53.60;97838.03;5045522;28;20055;-79
2021/10/23 02:28:51;;;;;;;13.90;2.72;;;;;;;6.78;53.88;97865.47;5041563;28;20054;-79
2021/10/23 02:31:17;;;;;;;;;;;;;;;6.77;53.76;97859.22;5046358;28;20091;-81
2021/10/23 02:33:43;;;;;;;13.02;3.05;;;;;;;6.81;53.72;97848.56;5042002;28;20318;-79
2021/10/23 02:36:10;;;;;;;14.60;2.90;;;;;;;6.86;53.71;97851.19;5044306;28;20497;-80
2021/10/23 02:38:36;;;;;;;18.50;2.70;;;;;;;6.91;53.58;97840.25;5049182;28;20095;-80
2021/10/23 02:41:02;;;;;;;17.58;3.17;;;;;;;6.80;53.61;97831.47;5058458;28;20045;-79
2021/10/23 02:43:28;;;;;;;12.68;3.13;;;;;;;6.91;53.55;97834.00;5039391;28;20049;-79
2021/10/23 02:45:56;;;;;;;15.07;3.00;;;;;;;6.91;53.46;97842.97;5057730;28;20409;-78
2021/10/23 02:48:22;;;;;;;9.35;2.80;;;;;;;6.87;53.89;97847.41;5040714;28;20099;-81
2021/10/23 02:50:48;;;;;;;12.45;2.63;;;;;;;6.90;53.56;97845.97;5057622;28;20080;-78
2021/10/23 02:53:14;;;;;;;22.00;3.20;;;;;;;6.85;53.30;97852.28;5053205;28;20476;-78
2021/10/23 02:55:40;;;;;;;15.38;3.42;;;;;;;6.99;53.39;97846.91;5053499;28;20044;-79
2021/10/23 02:58:06;;;;;;;14.52;2.90;;;;;;;6.95;53.56;97845.91;5043837;28;20049;-79
2021/10/23 03:00:32;;;;;;;16.77;3.20;;;;;;;6.92;53.44;97863.59;5037273;28;20106;-78
2021/10/23 03:03:00;;;;;;;12.60;2.97;;;;;;;6.97;53.48;97846.41;5056156;28;20051;-78
2021/10/23 03:05:26;;;;;;;18.65;3.08;;;;;;;6.99;53.54;97846.09;5048228;28;20041;-78
2021/10/23 03:07:52;;;;;;;12.57;3.30;;;;;;;7.01;53.54;97852.03;5050371;28;20048;-78
2021/10/23 03:10:18;;;;;;;14.27;3.00;;;;;;;7.02;53.45;97850.94;5051112;28;20413;-79
2021/10/23 03:12:44;;;;;;;18.95;3.25;;;;;;;6.98;53.63;97858.06;5059705;28;20060;-79
2021/10/23 03:15:10;;;;;;;11.77;3.05;;;;;;;7.03;53.52;97858.00;5058402;28;20045;-79
2021/10/23 03:17:36;;;;;;;16.58;3.35;;;;;;;6.94;53.82;97866.81;5045910;28;20067;-79
2021/10/23 03:20:05;;;;;;;11.88;3.10;;;;;;;6.97;53.83;97853.75;5049544;28;20049;-78
2021/10/23 03:22:31;;;;;;;16.33;3.10;;;;;;;6.93;53.65;97862.50;5048407;28;20422;-79
2021/10/23 03:24:57;;;;;;;13.77;2.60;;;;;;;7.05;53.50;97853.84;5054287;28;20041;-79
2021/10/23 03:27:23;;;;;;;19.30;3.45;;;;;;;7.03;53.43;97852.56;5058968;28;20051;-79
2021/10/23 03:29:50;;;;;;;14.23;3.05;;;;;;;6.99;53.74;97857.78;5041928;28;20052;-79
2021/10/23 03:32:18;;;;;;;15.73;3.25;;;;;;;6.87;53.91;97855.53;5053000;28;20052;-79
2021/10/23 03:34:46;;;;;;;16.45;3.42;;;;;;;6.93;53.78;97848.91;5049064;28;20108;-80
2021/10/23 03:37:14;;;;;;;12.25;3.10;;;;;;;6.97;53.71;97861.88;5051503;28;20118;-80
2021/10/23 03:39:40;;;;;;;23.20;4.40;;;;;;;7.05;53.57;97839.47;5059175;28;20047;-81
2021/10/23 03:42:06;;;;;;;24.05;3.67;;;;;;;7.01;53.71;97852.03;5058758;28;20497;-82
2021/10/23 03:44:32;;;;;;;17.55;4.50;;;;;;;6.98;53.67;97858.06;5060553;28;20050;-81
2021/10/23 03:46:58;;;;;;;14.50;3.15;;;;;;;6.99;53.67;97843.38;5055934;28;20129;-80
2021/10/23 03:49:24;;;;;;;15.63;4.47;;;;;;;7.02;53.41;97850.94;5057430;28;20128;-80
2021/10/23 03:51:50;;;;;;;15.13;3.47;;;;;;;6.90;53.74;97840.53;5053153;28;20424;-79
2021/10/23 03:54:17;;;;;;;12.18;3.22;;;;;;;7.00;53.67;97851.25;5055480;28;20128;-80
2021/10/23 03:56:43;;;;;;;18.50;3.65;;;;;;;7.03;53.63;97849.84;5043116;28;20497;-78
2021/10/23 03:59:09;;;;;;;11.65;3.78;;;;;;;6.85;54.14;97876.75;5055374;28;20049;-79
2021/10/23 04:01:35;;;;;;;20.60;3.53;;;;;;;6.86;54.14;97878.34;5051615;28;20068;-79
2021/10/23 04:04:02;;;;;;;13.52;3.35;;;;;;;6.89;54.04;97876.97;5062431;28;20472;-79
2021/10/23 04:06:28;;;;;;;19.40;3.50;;;;;;;6.91;53.98;97856.56;5053939;28;20132;-78
2021/10/23 04:08:54;;;;;;;15.45;4.03;;;;;;;6.89;54.25;97871.53;5059173;28;20513;-79
2021/10/23 04:11:21;;;;;;;16.00;3.85;;;;;;;6.90;54.17;97863.09;5064046;28;20050;-79
2021/10/23 04:13:47;;;;;;;12.63;3.30;;;;;;;6.83;54.42;97859.94;5058497;28;20094;-79
2021/10/23 04:16:13;;;;;;;17.75;3.60;;;;;;;6.92;54.31;97866.31;5054570;28;20045;-80
2021/10/23 04:18:39;;;;;;;12.82;3.60;;;;;;;6.83;54.71;97881.69;5054067;28;20255;-79
2021/10/23 04:21:05;;;;;;;15.77;3.55;;;;;;;6.85;54.69;97865.09;5061996;28;20049;-79
2021/10/23 04:23:31;;;;;;;12.70;3.45;;;;;;;6.86;54.59;97893.88;5025883;28;20040;-79
2021/10/23 04:25:57;;;;;;;18.27;3.63;;;;;;;6.77;54.85;97880.94;5056913;28;20060;-79
2021/10/23 04:28:24;;;;;;;14.98;3.58;;;;;;;6.80;54.86;97895.84;5058777;28;20504;-78
2021/10/23 04:30:51;;;;;;;15.98;3.90;;;;;;;6.80;55.06;97891.25;5064353;28;20074;-82
2021/10/23 04:33:17;;;;;;;18.98;3.60;;;;;;;6.75;55.38;97890.50;5057418;28;20049;-82
2021/10/23 04:35:43;;;;;;;17.02;3.42;;;;;;;6.73;55.45;97890.78;5051291;28;20048;-82
2021/10/23 04:38:08;;;;;;;17.48;3.55;;;;;;;6.81;55.22;97887.41;5061182;28;20100;-80
2021/10/23 04:40:36;;;;;;;14.98;3.10;;;;;;;6.83;55.27;97889.03;5058871;28;21656;-80
2021/10/23 04:43:02;;;;;;;17.20;3.25;;;;;;;6.87;55.16;97879.19;5038416;28;20049;-80
2021/10/23 04:45:30;;;;;;;17.63;3.60;;;;;;;6.85;55.18;97884.91;5060418;28;20262;-80
2021/10/23 04:47:56;;;;;;;17.50;3.90;;;;;;;6.77;55.45;97875.50;5058642;28;20055;-80
2021/10/23 04:50:22;;;;;;;20.38;3.45;;;;;;;6.77;55.73;97904.59;5059591;28;21781;-80
2021/10/23 04:52:48;;;;;;;19.67;3.60;;;;;;;6.84;55.55;97886.00;5035510;28;20144;-81
2021/10/23 04:55:14;;;;;;;13.80;3.30;;;;;;;6.83;55.76;97908.06;5041351;28;20041;-80
2021/10/23 04:57:39;;;;;;;14.30;3.05;;;;;;;6.65;56.08;97886.06;5042633;28;20076;-80
2021/10/23 05:00:07;;;;;;;20.40;3.85;;;;;;;6.70;56.21;97879.72;5060665;28;20056;-79
2021/10/23 05:02:37;;;;;;;19.23;4.05;;;;;;;6.72;56.37;97889.19;5065373;28;20110;-79
2021/10/23 05:05:03;;;;;;;8.98;3.20;;;;;;;6.76;56.28;97884.75;5055761;28;20058;-80
2021/10/23 05:07:29;;;;;;;13.95;3.60;;;;;;;6.77;56.09;97896.44;5046232;28;20041;-79
2021/10/23 05:09:55;;;;;;;24.42;3.70;;;;;;;6.85;56.07;97887.63;5054246;28;20060;-79
2021/10/23 05:12:23;;;;;;;17.25;3.58;;;;;;;6.76;56.48;97894.84;5058295;28;20052;-81
2021/10/23 05:14:49;;;;;;;17.08;3.90;;;;;;;6.84;56.39;97902.31;5055679;28;20091;-79
2021/10/23 05:17:15;;;;;;;14.93;3.40;;;;;;;6.78;56.90;97920.59;5055016;28;20408;-79
2021/10/23 05:19:43;;;;;;;12.77;3.55;;;;;;;6.83;56.73;97905.34;5057591;28;20045;-80
2021/10/23 05:22:09;;;;;;;17.15;3.20;;;;;;;6.80;56.70;97898.56;5052467;28;20459;-80
2021/10/23 05:24:35;;;;;;;12.30;3.67;;;;;;;6.79;56.82;97895.06;5037234;28;20113;-78
2021/10/23 05:27:01;;;;;;;17.88;4.07;;;;;;;6.74;57.26;97897.84;5050684;28;20045;-80
2021/10/23 05:29:28;;;;;;;19.02;3.83;;;;;;;6.77;57.09;97901.88;5057772;28;20072;-80
2021/10/23 05:31:54;;;;;;;13.55;3.53;;;;;;;6.80;57.07;97898.56;5058379;28;20090;-80
2021/10/23 05:34:20;;;;;;;12.82;3.50;;;;;;;6.84;57.28;97893.38;5036420;28;20206;-80
2021/10/23 05:36:47;;;;;;;19.92;4.97;;;;;;;6.88;56.87;97891.66;5058516;28;20543;-77
2021/10/23 05:39:13;;;;;;;17.42;4.20;;;;;;;6.91;57.16;97901.94;5064083;28;20064;-78
2021/10/23 05:41:39;;;;;;;12.70;3.25;;;;;;;6.97;56.96;97897.22;5056408;28;20489;-80
2021/10/23 05:44:05;;;;;;;13.65;3.50;;;;;;;7.01;56.91;97898.22;5058517;28;20045;-79
2021/10/23 05:46:31;;;;;;;18.38;3.60;;;;;;;7.03;56.76;97912.34;5053209;28;20051;-79
2021/10/23 05:48:56;;;;;;;19.77;3.83;;;;;;;6.98;56.76;97905.09;5055173;28;20621;-81
2021/10/23 05:51:22;;;;;;;14.05;3.38;;;;;;;7.02;56.87;97916.13;5026819;28;20091;-78
2021/10/23 05:53:50;;;;;;;23.75;3.53;;;;;;;7.06;56.59;97928.84;5058281;28;20098;-78
2021/10/23 05:56:16;;;;;;;29.08;4.70;;;;;;;7.05;56.39;97929.16;5053275;28;20049;-79
2021/10/23 05:58:42;;;;;;;21.88;3.30;;;;;;;6.92;56.46;97922.56;5056956;28;20043;-80
2021/10/23 06:01:08;;;;;;;13.20;3.30;;;;;;;7.00;56.26;97899.34;5057338;28;20051;-79
2021/10/23 06:03:35;;;;;;;20.08;3.38;;;;;;;7.08;55.88;97923.13;5056752;28;20048;-79
2021/10/23 06:06:03;;;;;;;11.75;3.38;;;;;;;7.10;55.89;97915.47;5054151;28;20049;-80
2021/10/23 06:08:30;;;;;;;11.40;3.47;;;;;;;7.12;55.57;97915.97;5050357;28;20483;-80
2021/10/23 06:10:57;;;;;;;19.50;4.00;;;;;;;7.17;55.61;97928.69;5052872;28;20053;-81
2021/10/23 06:13:41;;;;;;;13.73;3.28;;;;;;;7.13;55.29;97912.16;5054475;28;20136;-82
2021/10/23 06:16:07;;;;;;;12.52;3.50;;;;;;;7.24;54.85;97916.31;5053077;28;20067;-82
2021/10/23 06:18:33;;;;;;;23.35;3.90;;;;;;;7.30;54.99;97936.06;5052389;28;20512;-81
2021/10/23 06:20:59;;;;;;;12.98;3.38;;;;;;;7.26;54.85;97916.03;5051990;28;20123;-81
2021/10/23 06:23:28;;;;;;;24.70;3.75;;;;;;;7.27;54.93;97939.38;5052100;28;20037;-82
2021/10/23 06:25:55;;;;;;;26.75;4.75;;;;;;;7.17;54.57;97934.91;5052615;28;20147;-82
2021/10/23 06:28:22;;;;;;;16.80;3.78;;;;;;;7.18;54.61;97920.25;5057480;28;20452;-80
2021/10/23 06:30:49;;;;;;;11.57;3.03;;;;;;;7.25;54.55;97936.13;5071333;28;20083;-79
2021/10/23 06:33:18;;;;;;;21.73;3.83;;;;;;;7.33;54.33;97930.03;5060711;28;20048;-79
2021/10/23 06:35:44;;;;;;;20.15;3.22;;;;;;;7.34;54.10;97933.56;5052001;28;20072;-79
2021/10/23 06:38:10;;;;;;;18.48;3.90;;;;;;;7.36;53.98;97943.03;5054485;28;20496;-80
2021/10/23 06:40:36;;;;;;;18.85;3.67;;;;;;;7.29;54.11;97917.31;5050656;28;20068;-79
2021/10/23 06:43:02;;;;;;;16.75;3.47;;;;;;;7.29;54.07;97941.78;5053432;28;20052;-80
2021/10/23 06:45:31;;;;;;;16.48;3.10;;;;;;;7.29;54.17;97955.38;5053387;28;20045;-79
2021/10/23 06:47:59;;;;;;;18.75;3.10;;;;;;;7.34;53.90;97918.03;5050061;28;20103;-81
2021/10/23 06:50:26;;;;;;;15.07;3.55;;;;;;;7.33;53.91;97940.09;5053046;28;20444;-79
2021/10/23 06:52:53;;;;;;;20.15;3.70;;;;;;;7.30;53.85;97911.59;5052244;28;20053;-79
2021/10/23 06:55:19;;;;;;;17.42;3.88;;;;;;;7.35;53.83;97940.63;5054305;28;20067;-80
2021/10/23 06:57:46;;;;;;;14.82;3.17;;;;;;;7.33;53.84;97938.19;5054919;28;20135;-80
2021/10/23 07:00:13;;;;;;;15.98;3.65;;;;;;;7.37;53.83;97938.41;5054016;28;20075;-80
2021/10/23 07:02:41;;;;;;;11.50;3.30;;;;;;;7.39;53.88;97949.78;5054572;28;20036;-80
2021/10/23 07:05:12;;;;;;;23.20;3.83;;;;;;;7.26;54.08;97931.53;5054006;28;20049;-73
2021/10/23 07:07:39;;;;;;;12.73;3.42;;;;;;;7.26;53.96;97945.13;5052575;28;20041;-73
2021/10/23 07:10:10;;;;;;;13.25;2.83;;;;;;;7.22;54.00;97951.16;5052889;28;20500;-74
2021/10/23 07:12:37;;;;;;;18.13;3.53;;;;;;;7.26;54.04;97945.94;5054264;28;20098;-73
2021/10/23 07:15:04;;;;;;;21.33;3.97;;;;;;;7.30;54.18;97927.91;5053302;28;20552;-72
2021/10/23 07:17:30;;;;;;;13.50;3.80;;;;;;;7.13;54.23;97963.00;5051254;28;20037;-71
2021/10/23 07:19:57;;;;;;;17.58;3.45;;;;;;;7.16;54.23;97987.66;5054229;28;20057;-71
2021/10/23 07:22:23;;;;;;;;;;;;;;;7.14;54.16;97951.81;5033167;28;20677;-72
2021/10/23 07:24:49;;;;;;;20.48;3.78;;;;;;;7.12;54.22;97942.38;5034190;28;20152;-74
2021/10/23 07:27:15;;;;;;;17.80;4.00;;;;;;;7.11;54.36;97943.47;5050277;28;20045;-72
2021/10/23 07:29:42;;;;;;;16.55;3.70;;;;;;;7.11;54.42;97963.28;5053993;28;20041;-70
2021/10/23 07:32:08;;;;;;;19.48;3.92;;;;;;;7.18;54.35;97941.16;5052539;28;20141;-70
2021/10/23 07:34:34;;;;;;;15.38;3.78;;;;;;;7.14;54.10;97951.81;5053570;28;20539;-71
2021/10/23 07:37:03;;;;;;;13.48;4.15;;;;;;;7.16;54.45;97940.66;5053106;28;20144;-71
2021/10/23 07:39:29;;;;;;;18.58;3.55;;;;;;;7.12;54.44;97970.34;5056828;28;20451;-71
2021/10/23 07:41:55;;;;;;;19.17;4.35;;;;;;;7.05;54.65;97986.22;5051323;28;20452;-71
2021/10/23 07:44:21;;;;;;;14.77;3.50;;;;;;;6.97;54.73;97962.44;5053620;28;20048;-72
2021/10/23 07:46:47;;;;;;;12.63;3.90;;;;;;;7.00;54.61;97957.22;5051885;28;20040;-71
2021/10/23 07:49:13;;;;;;;26.67;4.50;;;;;;;6.90;55.24;97968.22;5053192;28;20505;-70
2021/10/23 07:51:40;;;;;;;18.52;3.80;;;;;;;6.88;54.74;97959.56;5050632;28;20056;-71
2021/10/23 07:54:10;;;;;;;13.05;3.97;;;;;;;6.98;54.93;97988.50;5050982;28;20433;-76
2021/10/23 07:56:37;;;;;;;17.08;3.30;;;;;;;6.83;55.21;97982.19;5050734;28;20041;-76
2021/10/23 07:59:03;;;;;;;16.45;4.15;;;;;;;6.84;55.25;97983.00;5052442;28;20103;-75
2021/10/23 08:01:29;;;;;;;16.20;4.00;;;;;;;6.81;55.46;97993.38;5051579;28;20045;-75
2021/10/23 08:03:56;;;;;;;19.05;4.45;;;;;;;6.90;55.58;98004.38;5051992;28;20055;-74
2021/10/23 08:06:22;;;;;;;14.65;3.53;;;;;;;7.01;55.08;97974.31;5050000;28;20128;-74
2021/10/23 08:08:49;;;;;;;18.83;4.30;;;;;;;7.09;54.94;97970.94;5032278;28;20513;-74
2021/10/23 08:11:16;;;;;;;16.55;4.10;;;;;;;7.11;54.86;97973.38;5035232;28;20060;-74
2021/10/23 08:13:43;;;;;;;14.23;4.32;;;;;;;7.11;55.23;97948.91;5052851;28;20265;-73
2021/10/23 08:16:09;;;;;;;20.33;4.45;;;;;;;7.22;55.09;97966.63;5051613;28;20060;-74
2021/10/23 08:18:36;;;;;;;21.83;4.88;;;;;;;7.11;55.22;97979.59;5035072;28;20076;-74
2021/10/23 08:21:02;;;;;;;15.27;3.97;;;;;;;7.14;55.07;97975.50;5018541;28;20092;-74
2021/10/23 08:23:28;;;;;;;16.27;5.07;;;;;;;7.21;55.07;97963.13;5053270;28;20045;-74
2021/10/23 08:25:55;;;;;;;21.42;4.47;;;;;;;7.23;54.86;97974.50;5033448;28;20419;-73
2021/10/23 08:28:23;;;;;;;20.30;4.68;;;;;;;7.17;54.68;97983.03;5038283;28;20052;-73
2021/10/23 08:30:50;;;;;;;17.05;5.13;;;;;;;7.30;54.52;97978.75;5047234;28;20510;-73
2021/10/23 08:33:16;;;;;;;21.85;4.38;;;;;;;7.27;54.77;97979.34;5031724;28;20131;-73
2021/10/23 08:35:43;;;;;;;15.32;4.05;;;;;;;7.41;54.36;97969.31;5050792;28;20505;-73
2021/10/23 08:38:09;;;;;;;28.80;5.28;;;;;;;7.40;54.55;97970.44;5052488;28;20048;-73
2021/10/23 08:40:35;;;;;;;18.98;4.63;;;;;;;7.36;54.77;97974.84;5050267;28;20055;-73
2021/10/23 08:43:04;;;;;;;34.88;5.30;;;;;;;7.45;54.40;97974.97;5051005;28;20143;-73
2021/10/23 08:45:34;;;;;;;28.35;4.60;;;;;;;7.45;54.48;97973.03;5033706;28;20048;-73
2021/10/23 08:48:03;;;;;;;13.70;4.40;;;;;;;7.46;54.50;97992.91;5047731;28;20060;-73
2021/10/23 08:50:31;;;;;;;25.70;4.55;;;;;;;7.42;54.68;97989.19;5052401;28;20041;-73
2021/10/23 08:53:02;;;;;;;20.30;4.65;;;;;;;7.46;54.69;97976.59;5064464;28;20049;-73
2021/10/23 08:55:29;;;;;;;21.40;4.90;;;;;;;7.58;54.52;97985.09;5031489;28;20041;-76
2021/10/23 08:57:55;;;;;;;18.60;5.00;;;;;;;7.35;54.63;98005.88;5052426;28;20049;-73
2021/10/23 09:00:21;;;;;;;16.20;5.45;;;;;;;7.46;54.07;97995.63;5030598;28;20099;-73
2021/10/23 09:02:49;;;;;;;24.27;4.50;;;;;;;7.49;54.44;98030.38;5033069;28;20099;-74
2021/10/23 09:05:15;;;;;;;16.77;5.18;;;;;;;7.32;55.01;97995.56;5050225;28;20511;-74
2021/10/23 09:07:42;;;;;;;17.17;4.85;;;;;;;7.43;55.06;98004.38;5044487;28;20057;-72
2021/10/23 09:10:08;;;;;;;17.95;4.25;;;;;;;7.44;55.19;98001.34;5048855;28;20140;-71
2021/10/23 09:12:37;;;;;;;23.73;6.55;;;;;;;7.52;55.41;97981.63;5044736;28;20049;-73
2021/10/23 09:15:05;;;;;;;20.98;5.13;;;;;;;7.66;55.01;97994.47;5033678;28;20063;-72
2021/10/23 09:17:33;;;;;;;20.73;5.25;;;;;;;7.70;54.84;97981.03;5048330;28;20140;-74
2021/10/23 09:20:08;;;;;;;23.25;5.82;;;;;;;7.45;55.40;97943.13;5030908;28;20049;-73
2021/10/23 09:22:36;;;;;;;20.30;5.25;;;;;;;7.70;55.74;98019.94;5050633;28;20055;-68
2021/10/23 09:25:20;;;;;;;21.55;4.97;;;;;;;7.65;55.42;97990.91;5047917;28;20064;-73
2021/10/23 09:27:48;;;;;;;21.88;5.10;;;;;;;7.85;55.48;97988.94;5042342;28;20043;-72
2021/10/23 09:30:16;;;;;;;23.02;5.70;;;;;;;8.52;53.58;97967.75;5040181;28;20422;-72
2021/10/23 09:32:48;;;;;;;20.33;4.57;;;;;;;9.03;52.48;97984.03;5046760;28;20083;-71
2021/10/23 09:35:16;;;;;;;21.65;5.43;;;;;;;9.00;51.75;97993.66;5051030;28;20044;-72
2021/10/23 09:37:44;;;;;;;21.52;5.53;;;;;;;9.25;50.98;97988.69;5048359;28;20056;-71
2021/10/23 09:40:14;;;;;;;18.63;5.70;;;;;;;9.13;50.88;97989.25;5049467;28;20114;-72
2021/10/23 09:42:40;;;;;;;21.33;4.85;;;;;;;9.19;50.70;98001.66;5048328;28;20048;-72
2021/10/23 09:45:07;;;;;;;21.85;5.70;;;;;;;9.19;50.80;97982.56;5048606;28;20060;-73
2021/10/23 09:47:37;;;;;;;29.88;5.32;;;;;;;9.06;51.11;97956.19;5029429;28;20052;-72
2021/10/23 09:50:05;;;;;;;29.20;5.80;;;;;;;9.02;50.83;98015.97;5043695;28;20053;-74
2021/10/23 09:52:51;;;;;;;17.13;4.95;;;;;;;8.89;51.01;97976.72;5055220;28;20052;-74
2021/10/23 09:55:17;;;;;;;30.33;6.47;;;;;;;8.82;51.13;97951.81;5052287;28;20055;-73
2021/10/23 09:57:44;;;;;;;26.52;6.18;;;;;;;9.06;50.81;97999.81;5048403;28;20055;-72
2021/10/23 10:00:11;;;;;;;30.45;6.47;;;;;;;8.98;51.00;97971.38;5053621;28;20139;-73
2021/10/23 10:02:42;;;;;;;20.00;5.82;;;;;;;9.38;50.49;97973.41;5048138;28;20065;-72
2021/10/23 10:05:08;;;;;;;;;;;;;;;9.37;50.70;98018.16;5050280;28;20140;-70
2021/10/23 10:07:36;;;;;;;20.70;6.03;;;;;;;9.12;50.90;97997.75;5030922;28;19964;-72
2021/10/23 10:10:02;;;;;;;21.65;6.38;;;;;;;9.11;50.85;97988.78;5042330;28;20045;-72
2021/10/23 10:12:30;;;;;;;26.65;5.72;;;;;;;9.23;50.43;97985.47;5049817;28;20052;-71
2021/10/23 10:14:56;;;;;;;;;;;;;;;9.36;50.29;98024.69;5049121;28;20080;-71
2021/10/23 10:17:23;;;;;;;18.00;6.20;;;;;;;9.43;49.43;98027.00;5046569;28;19966;-72
2021/10/23 10:19:52;;;;;;;31.75;6.15;;;;;;;10.71;46.86;97993.81;5044425;28;20059;-71
2021/10/23 10:22:18;;;;;;;19.23;6.20;;;;;;;11.53;45.41;97984.13;5038462;28;20041;-72
2021/10/23 10:24:45;;;;;;;28.05;6.60;;;;;;;11.80;44.47;97988.41;5038890;28;20059;-73
2021/10/23 10:27:14;;;;;;;22.80;6.47;;;;;;;11.05;45.69;97993.03;5042109;28;20095;-72
2021/10/23 10:29:48;;;;;;;25.70;6.43;;;;;;;10.57;46.49;97986.56;5011746;28;20041;-71
2021/10/23 10:32:24;;;;;;;33.53;7.95;;;;;;;10.62;46.64;97988.34;5047919;28;20052;-72
2021/10/23 10:42:51;;;;;;;26.55;6.47;;;;;;;9.22;49.05;97995.59;5031373;28;20671;-70
2021/10/23 10:45:27;;;;;;;24.13;6.47;;;;;;;9.36;48.49;98021.97;5029351;28;20052;-70
2021/10/23 10:48:14;;;;;;;28.92;7.15;;;;;;;9.41;48.98;98023.78;5048514;28;20540;-72
2021/10/23 10:50:43;;;;;;;19.50;6.18;;;;;;;9.05;49.37;98018.06;5046253;28;20186;-71
2021/10/23 10:53:17;;;;;;;25.98;8.40;;;;;;;9.18;49.67;98021.84;5047937;28;20055;-71
2021/10/23 10:55:46;;;;;;;25.85;6.90;;;;;;;9.17;49.49;98031.16;5052602;28;20056;-74
2021/10/23 10:58:12;;;;;;;25.27;6.78;;;;;;;9.19;49.25;98017.22;5052867;28;20421;-75
2021/10/23 11:01:11;;;;;;;27.15;7.00;;;;;;;9.29;49.15;98032.53;5048010;28;20037;-72
2021/10/23 11:03:41;;;;;;;24.75;6.55;;;;;;;9.21;49.48;98028.63;5050703;28;20052;-74
2021/10/23 11:06:38;;;;;;;20.88;6.22;;;;;;;8.86;49.89;98052.84;5050957;28;20076;-72
2021/10/23 11:09:30;;;;;;;31.13;6.90;;;;;;;9.08;49.53;98033.00;5043496;28;20092;-72
2021/10/23 11:12:36;;;;;;;21.35;6.65;;;;;;;9.06;49.63;98030.59;5034545;28;20057;-72
2021/10/23 11:15:03;;;;;;;21.75;6.35;;;;;;;8.84;49.71;98066.78;5050286;28;20040;-73
2021/10/23 11:17:29;;;;;;;22.75;7.45;;;;;;;8.87;49.56;98033.47;5031278;28;20541;-72
2021/10/23 11:19:59;;;;;;;23.48;6.25;;;;;;;8.61;49.87;98031.31;5049476;28;20059;-71
2021/10/23 11:22:30;;;;;;;35.85;7.07;;;;;;;8.62;50.00;98032.91;5052154;28;20045;-73
2021/10/23 11:25:05;;;;;;;30.67;6.70;;;;;;;8.71;50.12;98040.34;5049463;28;20114;-73
2021/10/23 11:27:39;;;;;;;33.05;6.65;;;;;;;8.56;50.35;98042.28;5049998;28;20049;-75
2021/10/23 11:30:15;;;;;;;24.67;7.20;;;;;;;8.44;50.53;98025.66;5051754;28;20820;-72
2021/10/23 11:32:44;;;;;;;23.23;6.22;;;;;;;8.61;50.45;98055.81;5051529;28;20094;-72
2021/10/23 11:35:11;;;;;;;27.42;8.02;;;;;;;8.70;50.42;98055.09;5058544;28;20571;-73
2021/10/23 11:37:38;;;;;;;22.27;7.20;;;;;;;9.62;48.35;98056.81;5050693;28;20545;-72
2021/10/23 11:40:06;;;;;;;20.38;6.43;;;;;;;10.34;46.44;98065.88;5049508;28;20041;-72
2021/10/23 11:42:34;;;;;;;28.77;7.55;;;;;;;10.65;45.61;98053.28;5012745;28;20049;-73
2021/10/23 11:45:07;;;;;;;24.88;6.68;;;;;;;10.93;44.98;98047.56;5050172;28;20061;-73